Time;durP1;ratioP1;P1;durP2;ratioP2;P2;SDS_P1;SDS_P2;PMS_P1;PMS_P2;Temp;Humidity;BMP_temperature;BMP_pressure;BME280_temperature;BME280_humidity;BME280_pressure;Samples;Min_cycle;Max_cycle;Signal;HPM_P1;HPM_P2
2022/03/25 00:00:00;;;;;;;55.72;26.88;;;;;;;;;;5093578;28;20052;-64
2022/03/25 00:02:27;;;;;;;48.88;27.27;;;;;;;;;;5089782;27;20485;-64
2022/03/25 00:04:53;;;;;;;49.35;27.05;;;;;;;;;;5100988;27;20147;-63
2022/03/25 00:07:20;;;;;;;51.58;26.50;;;;;;;;;;5094907;28;20052;-64
2022/03/25 00:09:47;;;;;;;53.00;27.23;;;;;;;;;;5088007;27;20173;-64
2022/03/25 00:12:13;;;;;;;52.67;27.45;;;;;;;;;;5080289;28;20525;-64
2022/03/25 00:14:39;;;;;;;57.42;27.83;;;;;;;;;;5092903;27;20079;-63
2022/03/25 00:17:07;;;;;;;52.30;26.45;;;;;;;;;;5070285;28;20053;-64
2022/03/25 00:19:34;;;;;;;;;;;;;;;;;;5073332;28;20579;-63
2022/03/25 00:22:01;;;;;;;52.88;25.98;;;;;;;;;;5076880;28;44739;-63
2022/03/25 00:24:27;;;;;;;50.65;26.67;;;;;;;;;;5095454;27;20075;-63
2022/03/25 00:26:53;;;;;;;53.72;26.88;;;;;;;;;;5090765;27;20082;-63
2022/03/25 00:29:20;;;;;;;57.42;28.33;;;;;;;;;;5091514;28;20092;-63
2022/03/25 00:31:46;;;;;;;56.08;28.95;;;;;;;;;;5072445;28;20087;-63
2022/03/25 00:34:12;;;;;;;52.72;28.30;;;;;;;;;;5090099;28;20404;-64
2022/03/25 00:36:39;;;;;;;54.70;29.52;;;;;;;;;;5074493;28;20119;-64
2022/03/25 00:39:05;;;;;;;55.67;28.02;;;;;;;;;;5100212;28;20103;-63
2022/03/25 00:41:36;;;;;;;64.53;29.70;;;;;;;;;;5083815;27;20056;-64
2022/03/25 00:44:05;;;;;;;61.85;30.45;;;;;;;;;;5107731;28;20056;-63
2022/03/25 00:46:31;;;;;;;56.50;28.45;;;;;;;;;;5084959;28;20080;-63
2022/03/25 00:48:58;;;;;;;59.00;29.27;;;;;;;;;;5098721;27;20048;-64
2022/03/25 00:51:24;;;;;;;58.28;31.33;;;;;;;;;;5080814;28;20131;-63
2022/03/25 00:53:51;;;;;;;58.10;30.45;;;;;;;;;;5097798;28;20044;-63
2022/03/25 00:56:17;;;;;;;60.13;30.88;;;;;;;;;;5106648;27;20058;-63
2022/03/25 00:58:44;;;;;;;63.30;31.90;;;;;;;;;;5095555;28;20054;-63
2022/03/25 01:01:10;;;;;;;66.38;30.33;;;;;;;;;;5082344;28;20067;-63
2022/03/25 01:03:37;;;;;;;64.05;31.00;;;;;;;;;;5086095;28;20052;-63
2022/03/25 01:06:03;;;;;;;66.43;33.20;;;;;;;;;;5086187;28;20491;-63
2022/03/25 01:08:29;;;;;;;69.85;34.60;;;;;;;;;;5084786;27;20525;-63
2022/03/25 01:10:56;;;;;;;66.22;32.53;;;;;;;;;;5078952;28;20143;-63
2022/03/25 01:13:22;;;;;;;67.75;32.58;;;;;;;;;;5093231;28;20147;-63
2022/03/25 01:15:49;;;;;;;65.13;32.33;;;;;;;;;;5089146;28;20095;-63
2022/03/25 01:18:15;;;;;;;64.53;33.70;;;;;;;;;;5085382;28;20075;-63
2022/03/25 01:20:42;;;;;;;74.88;35.70;;;;;;;;;;5074382;28;20081;-63
2022/03/25 01:23:09;;;;;;;64.75;33.65;;;;;;;;;;5095116;28;20076;-63
2022/03/25 01:25:36;;;;;;;70.20;33.25;;;;;;;;;;5081256;27;20134;-63
2022/03/25 01:28:02;;;;;;;63.15;32.15;;;;;;;;;;5070599;28;20743;-64
2022/03/25 01:30:29;;;;;;;66.88;33.85;;;;;;;;;;5073458;28;20061;-64
2022/03/25 01:32:55;;;;;;;69.18;34.08;;;;;;;;;;5082034;28;20080;-63
2022/03/25 01:35:24;;;;;;;67.50;34.22;;;;;;;;;;5088861;28;20062;-63
2022/03/25 01:37:50;;;;;;;71.35;34.67;;;;;;;;;;5090018;28;20053;-64
2022/03/25 01:40:17;;;;;;;65.50;32.70;;;;;;;;;;5087096;27;20075;-63
2022/03/25 01:42:43;;;;;;;69.70;35.03;;;;;;;;;;5087882;27;20087;-64
2022/03/25 01:45:11;;;;;;;70.30;35.08;;;;;;;;;;5086322;27;20139;-62
2022/03/25 01:47:38;;;;;;;71.35;35.40;;;;;;;;;;5097814;28;20663;-62
2022/03/25 01:50:12;;;;;;;79.70;37.33;;;;;;;;;;5086905;27;20510;-64
2022/03/25 01:52:39;;;;;;;78.43;35.78;;;;;;;;;;5076550;28;20135;-64
2022/03/25 01:55:14;;;;;;;71.10;35.77;;;;;;;;;;5078693;28;20155;-63
2022/03/25 01:57:40;;;;;;;72.57;36.50;;;;;;;;;;5084321;28;20072;-64
2022/03/25 02:00:07;;;;;;;74.05;36.47;;;;;;;;;;5080371;28;20136;-64
2022/03/25 02:02:36;;;;;;;72.95;36.28;;;;;;;;;;5095242;27;20482;-63
2022/03/25 02:05:02;;;;;;;81.60;37.33;;;;;;;;;;5099553;27;20080;-64
2022/03/25 02:07:29;;;;;;;73.85;38.05;;;;;;;;;;5072833;27;20569;-65
2022/03/25 02:09:56;;;;;;;71.45;36.03;;;;;;;;;;5085377;28;20151;-64
2022/03/25 02:12:22;;;;;;;72.65;35.17;;;;;;;;;;5091270;28;20583;-64
2022/03/25 02:14:49;;;;;;;74.25;36.33;;;;;;;;;;5098189;28;20182;-64
2022/03/25 02:17:16;;;;;;;74.82;35.50;;;;;;;;;;5089682;28;20041;-63
2022/03/25 02:19:42;;;;;;;75.15;35.88;;;;;;;;;;5085313;28;20062;-64
2022/03/25 02:22:08;;;;;;;76.28;36.00;;;;;;;;;;5089284;28;20058;-64
2022/03/25 02:24:35;;;;;;;74.57;35.78;;;;;;;;;;5093828;27;20583;-63
2022/03/25 02:27:02;;;;;;;77.03;37.83;;;;;;;;;;5080387;28;20053;-63
2022/03/25 02:29:28;;;;;;;81.35;38.15;;;;;;;;;;5079001;28;20049;-63
2022/03/25 02:31:55;;;;;;;77.15;36.83;;;;;;;;;;5085031;28;20131;-64
2022/03/25 02:34:21;;;;;;;76.75;39.05;;;;;;;;;;5097210;27;20902;-64
2022/03/25 02:36:48;;;;;;;76.97;37.38;;;;;;;;;;5072122;28;20056;-64
2022/03/25 02:39:14;;;;;;;78.68;38.05;;;;;;;;;;5077976;28;20063;-62
2022/03/25 02:41:41;;;;;;;76.97;35.92;;;;;;;;;;5074209;28;20518;-64
2022/03/25 02:44:08;;;;;;;71.28;36.15;;;;;;;;;;5083625;28;20108;-64
2022/03/25 02:46:35;;;;;;;74.05;36.67;;;;;;;;;;5069567;28;20063;-64
2022/03/25 02:49:01;;;;;;;75.13;36.20;;;;;;;;;;5079192;28;20519;-64
2022/03/25 02:51:28;;;;;;;69.03;36.40;;;;;;;;;;5080513;28;20922;-65
2022/03/25 02:53:55;;;;;;;74.13;35.22;;;;;;;;;;5071925;28;20530;-63
2022/03/25 02:56:24;;;;;;;72.13;35.70;;;;;;;;;;5081029;27;20079;-63
2022/03/25 02:58:51;;;;;;;77.90;37.28;;;;;;;;;;5073968;27;20144;-64
2022/03/25 03:01:18;;;;;;;73.88;36.10;;;;;;;;;;5069959;28;20056;-63
2022/03/25 03:03:45;;;;;;;72.65;35.78;;;;;;;;;;5098990;28;20051;-63
2022/03/25 03:06:11;;;;;;;74.55;37.72;;;;;;;;;;5079092;27;20528;-64
2022/03/25 03:08:37;;;;;;;73.75;36.65;;;;;;;;;;5089917;27;20067;-64
2022/03/25 03:11:04;;;;;;;77.50;36.28;;;;;;;;;;5088616;28;20051;-64
2022/03/25 03:13:30;;;;;;;76.25;37.42;;;;;;;;;;5088068;27;20060;-63
2022/03/25 03:15:56;;;;;;;77.82;38.45;;;;;;;;;;5092413;28;20059;-64
2022/03/25 03:18:23;;;;;;;73.93;37.67;;;;;;;;;;5085997;27;20131;-63
2022/03/25 03:20:49;;;;;;;82.07;39.00;;;;;;;;;;5067902;28;20533;-64
2022/03/25 03:23:16;;;;;;;79.88;38.97;;;;;;;;;;5068170;28;20072;-64
2022/03/25 03:25:43;;;;;;;87.50;41.65;;;;;;;;;;5081533;28;20052;-65
2022/03/25 03:28:09;;;;;;;77.03;39.00;;;;;;;;;;5086817;28;20183;-64
2022/03/25 03:30:36;;;;;;;84.70;39.42;;;;;;;;;;5073636;28;20618;-64
2022/03/25 03:33:05;;;;;;;81.90;38.28;;;;;;;;;;5086470;28;20426;-64
2022/03/25 03:35:34;;;;;;;79.22;38.10;;;;;;;;;;5074578;28;20053;-64
2022/03/25 03:38:01;;;;;;;82.38;40.47;;;;;;;;;;5069122;28;20048;-64
2022/03/25 03:40:28;;;;;;;80.90;39.97;;;;;;;;;;5084690;27;20056;-64
2022/03/25 03:42:54;;;;;;;81.78;38.85;;;;;;;;;;5086012;28;20139;-63
2022/03/25 03:45:21;;;;;;;79.45;36.83;;;;;;;;;;5077765;28;20161;-64
2022/03/25 03:47:47;;;;;;;83.82;40.97;;;;;;;;;;5103118;28;20522;-64
2022/03/25 03:50:15;;;;;;;77.65;37.75;;;;;;;;;;5082107;27;20048;-64
2022/03/25 03:52:42;;;;;;;83.82;39.58;;;;;;;;;;5091385;27;20527;-64
2022/03/25 03:55:08;;;;;;;83.38;40.30;;;;;;;;;;5096379;27;20147;-64
2022/03/25 03:57:35;;;;;;;81.95;40.80;;;;;;;;;;5101656;28;20499;-64
2022/03/25 04:00:05;;;;;;;81.68;39.65;;;;;;;;;;5089374;27;20509;-64
2022/03/25 04:02:32;;;;;;;78.25;39.35;;;;;;;;;;5090503;27;20411;-64
2022/03/25 04:04:58;;;;;;;89.97;39.70;;;;;;;;;;5100305;27;20560;-64
2022/03/25 04:07:25;;;;;;;87.00;39.63;;;;;;;;;;5080714;27;20056;-64
2022/03/25 04:09:51;;;;;;;85.10;40.20;;;;;;;;;;5072789;28;20077;-64
2022/03/25 04:12:18;;;;;;;80.55;39.42;;;;;;;;;;5084095;27;20056;-64
2022/03/25 04:14:44;;;;;;;86.72;40.78;;;;;;;;;;5079310;27;20075;-64
2022/03/25 04:17:11;;;;;;;89.43;40.95;;;;;;;;;;5088262;28;20140;-64
2022/03/25 04:19:37;;;;;;;78.20;38.97;;;;;;;;;;5075256;28;20056;-64
2022/03/25 04:22:03;;;;;;;86.90;41.45;;;;;;;;;;5096853;28;20052;-64
2022/03/25 04:24:30;;;;;;;83.03;41.50;;;;;;;;;;5097200;27;20127;-64
2022/03/25 04:26:56;;;;;;;86.30;40.97;;;;;;;;;;5100567;27;20056;-64
2022/03/25 04:29:23;;;;;;;82.57;40.70;;;;;;;;;;5074347;27;20053;-64
2022/03/25 04:31:49;;;;;;;88.50;40.70;;;;;;;;;;5102786;28;20552;-64
2022/03/25 04:34:16;;;;;;;87.43;40.75;;;;;;;;;;5073283;28;20063;-64
2022/03/25 04:36:42;;;;;;;80.45;39.08;;;;;;;;;;5076728;28;20053;-64
2022/03/25 04:39:08;;;;;;;87.55;41.25;;;;;;;;;;5080495;28;20143;-64
2022/03/25 04:41:35;;;;;;;87.22;42.20;;;;;;;;;;5084600;28;20048;-64
2022/03/25 04:44:01;;;;;;;89.55;40.80;;;;;;;;;;5085161;28;20055;-64
2022/03/25 04:46:27;;;;;;;84.75;41.55;;;;;;;;;;5082344;28;20056;-64
2022/03/25 04:48:53;;;;;;;87.05;40.45;;;;;;;;;;5078480;28;20052;-64
2022/03/25 04:51:20;;;;;;;94.13;42.13;;;;;;;;;;5085342;28;20580;-64
2022/03/25 04:53:48;;;;;;;83.72;40.25;;;;;;;;;;5080383;28;20438;-64
2022/03/25 04:56:14;;;;;;;89.65;42.53;;;;;;;;;;5088536;28;20048;-64
2022/03/25 04:58:41;;;;;;;84.45;41.55;;;;;;;;;;5101057;27;20055;-64
2022/03/25 05:01:07;;;;;;;88.15;42.42;;;;;;;;;;5092537;28;20053;-64
2022/03/25 05:03:34;;;;;;;90.05;42.70;;;;;;;;;;5083332;28;20139;-64
2022/03/25 05:06:00;;;;;;;90.18;42.65;;;;;;;;;;5080536;28;20060;-64
2022/03/25 05:08:26;;;;;;;84.70;42.22;;;;;;;;;;5089781;27;20101;-64
2022/03/25 05:10:53;;;;;;;88.38;41.60;;;;;;;;;;5076948;28;20045;-66
2022/03/25 05:13:27;;;;;;;90.95;43.17;;;;;;;;;;5077354;28;20515;-64
2022/03/25 05:15:54;;;;;;;85.05;40.55;;;;;;;;;;5076958;28;20053;-64
2022/03/25 05:18:23;;;;;;;83.93;42.13;;;;;;;;;;5091026;27;20055;-64
2022/03/25 05:20:50;;;;;;;87.82;41.05;;;;;;;;;;5095588;27;20225;-64
2022/03/25 05:23:16;;;;;;;93.57;41.40;;;;;;;;;;5086381;27;20095;-64
2022/03/25 05:25:43;;;;;;;89.97;42.50;;;;;;;;;;5070331;28;20052;-64
2022/03/25 05:28:09;;;;;;;90.53;43.20;;;;;;;;;;5093718;28;20063;-64
2022/03/25 05:30:36;;;;;;;84.22;41.33;;;;;;;;;;5095918;27;20139;-64
2022/03/25 05:33:02;;;;;;;89.97;41.88;;;;;;;;;;5090563;27;20061;-64
2022/03/25 05:35:30;;;;;;;86.45;40.33;;;;;;;;;;5075556;28;20496;-64
2022/03/25 05:37:56;;;;;;;87.70;42.35;;;;;;;;;;5086694;28;20048;-63
2022/03/25 05:40:24;;;;;;;88.30;40.90;;;;;;;;;;5087752;28;20518;-63
2022/03/25 05:42:50;;;;;;;85.15;39.95;;;;;;;;;;5087839;27;20135;-64
2022/03/25 05:45:18;;;;;;;89.95;41.60;;;;;;;;;;5092010;28;20984;-63
2022/03/25 05:47:45;;;;;;;87.97;42.83;;;;;;;;;;5090907;28;20117;-63
2022/03/25 05:50:11;;;;;;;98.75;44.38;;;;;;;;;;5070962;28;20125;-64
2022/03/25 05:52:39;;;;;;;90.05;41.90;;;;;;;;;;5086358;28;20080;-64
2022/03/25 05:55:05;;;;;;;95.90;43.50;;;;;;;;;;5083075;28;20541;-63
2022/03/25 05:57:32;;;;;;;89.35;41.20;;;;;;;;;;5081651;28;20053;-63
2022/03/25 05:59:59;;;;;;;88.65;41.28;;;;;;;;;;5102898;28;20412;-63
2022/03/25 06:02:27;;;;;;;95.90;42.70;;;;;;;;;;5081727;28;20048;-64
2022/03/25 06:04:55;;;;;;;92.30;41.70;;;;;;;;;;5105197;27;20067;-63
2022/03/25 06:07:22;;;;;;;92.60;42.97;;;;;;;;;;5090552;27;20569;-64
2022/03/25 06:09:48;;;;;;;99.82;44.55;;;;;;;;;;5081236;28;20053;-64
2022/03/25 06:12:14;;;;;;;94.75;42.78;;;;;;;;;;5092352;28;20044;-64
2022/03/25 06:14:41;;;;;;;89.35;42.67;;;;;;;;;;5093893;27;20088;-63
2022/03/25 06:17:07;;;;;;;87.88;41.35;;;;;;;;;;5089530;28;20052;-64
2022/03/25 06:19:33;;;;;;;90.00;41.53;;;;;;;;;;5092327;27;20494;-65
2022/03/25 06:22:00;;;;;;;94.15;44.50;;;;;;;;;;5087536;28;20045;-65
2022/03/25 06:24:26;;;;;;;90.88;43.38;;;;;;;;;;5085684;27;20052;-64
2022/03/25 06:26:52;;;;;;;95.78;44.80;;;;;;;;;;5078002;28;20144;-65
2022/03/25 06:29:19;;;;;;;96.05;44.00;;;;;;;;;;5068232;28;20168;-65
2022/03/25 06:31:46;;;;;;;95.30;41.65;;;;;;;;;;5101382;28;20087;-65
2022/03/25 06:34:14;;;;;;;96.03;42.97;;;;;;;;;;5077826;27;20048;-65
2022/03/25 06:36:41;;;;;;;92.53;44.25;;;;;;;;;;5092564;27;20146;-65
2022/03/25 06:39:07;;;;;;;92.05;43.72;;;;;;;;;;5097556;27;20062;-62
2022/03/25 06:41:33;;;;;;;103.95;47.85;;;;;;;;;;5082080;28;20053;-63
2022/03/25 06:44:01;;;;;;;95.10;45.33;;;;;;;;;;5089012;28;20155;-63
2022/03/25 06:46:27;;;;;;;99.45;43.40;;;;;;;;;;5092310;28;20690;-63
2022/03/25 06:48:54;;;;;;;102.70;47.33;;;;;;;;;;5098659;27;20912;-63
2022/03/25 06:51:20;;;;;;;95.18;45.15;;;;;;;;;;5075937;28;20176;-63
2022/03/25 06:53:46;;;;;;;94.10;44.55;;;;;;;;;;5099775;28;20052;-64
2022/03/25 06:56:13;;;;;;;159.23;49.95;;;;;;;;;;5083638;27;20500;-64
2022/03/25 06:58:40;;;;;;;99.82;46.08;;;;;;;;;;5086402;27;20509;-64
2022/03/25 07:01:06;;;;;;;156.15;48.42;;;;;;;;;;5079647;28;20045;-64
2022/03/25 07:03:33;;;;;;;95.50;45.35;;;;;;;;;;5101730;28;20056;-64
2022/03/25 07:06:00;;;;;;;98.97;46.80;;;;;;;;;;5081117;27;20130;-64
2022/03/25 07:08:28;;;;;;;90.28;44.47;;;;;;;;;;5102579;27;20592;-64
2022/03/25 07:10:55;;;;;;;97.25;44.05;;;;;;;;;;5084616;28;20499;-64
2022/03/25 07:13:21;;;;;;;99.25;45.53;;;;;;;;;;5098669;28;20432;-64
2022/03/25 07:15:47;;;;;;;94.63;43.45;;;;;;;;;;5084766;27;20041;-64
2022/03/25 07:18:14;;;;;;;96.22;45.25;;;;;;;;;;5097191;28;20088;-64
2022/03/25 07:20:40;;;;;;;92.55;40.80;;;;;;;;;;5098410;27;20057;-64
2022/03/25 07:23:07;;;;;;;98.68;43.97;;;;;;;;;;5079446;28;20047;-64
2022/03/25 07:25:33;;;;;;;94.10;43.88;;;;;;;;;;5099459;28;20063;-63
2022/03/25 07:28:00;;;;;;;92.72;44.65;;;;;;;;;;5094873;27;20142;-64
2022/03/25 07:30:26;;;;;;;91.32;43.53;;;;;;;;;;5101866;27;20056;-63
2022/03/25 07:32:53;;;;;;;94.30;44.13;;;;;;;;;;5083046;28;20059;-63
2022/03/25 07:35:19;;;;;;;88.57;44.78;;;;;;;;;;5099819;28;20061;-63
2022/03/25 07:37:45;;;;;;;94.47;46.78;;;;;;;;;;5094629;28;20495;-63
2022/03/25 07:40:13;;;;;;;101.55;46.33;;;;;;;;;;5081182;28;20143;-63
2022/03/25 07:42:41;;;;;;;90.95;45.78;;;;;;;;;;5104093;27;20484;-63
2022/03/25 07:45:09;;;;;;;94.63;44.85;;;;;;;;;;5076296;28;20155;-63
2022/03/25 07:47:39;;;;;;;98.50;46.20;;;;;;;;;;5078498;28;20049;-64
2022/03/25 07:50:08;;;;;;;214.88;52.13;;;;;;;;;;5081658;28;21168;-63
2022/03/25 07:52:34;;;;;;;91.40;44.53;;;;;;;;;;5091908;27;20457;-63
2022/03/25 07:55:01;;;;;;;91.25;43.63;;;;;;;;;;5094693;27;20591;-63
2022/03/25 07:57:28;;;;;;;92.07;45.47;;;;;;;;;;5096931;28;20056;-62
2022/03/25 07:59:54;;;;;;;91.25;44.97;;;;;;;;;;5089710;28;20151;-62
2022/03/25 08:02:20;;;;;;;83.30;43.03;;;;;;;;;;5093745;27;20226;-63
2022/03/25 08:04:47;;;;;;;83.93;42.92;;;;;;;;;;5104514;28;20522;-61
2022/03/25 08:07:13;;;;;;;86.40;41.47;;;;;;;;;;5073293;28;20143;-61
2022/03/25 08:09:40;;;;;;;90.70;42.67;;;;;;;;;;5073484;28;20510;-61
2022/03/25 08:12:07;;;;;;;81.57;41.92;;;;;;;;;;5077361;28;20140;-63
2022/03/25 08:14:34;;;;;;;87.33;43.63;;;;;;;;;;5102101;27;20148;-64
2022/03/25 08:17:01;;;;;;;84.97;41.80;;;;;;;;;;5080781;28;20498;-63
2022/03/25 08:19:32;;;;;;;84.55;41.30;;;;;;;;;;5076169;28;20883;-66
2022/03/25 08:21:58;;;;;;;90.28;41.53;;;;;;;;;;5099923;28;20132;-63
2022/03/25 08:29:55;;;;;;;79.20;39.22;;;;;;;;;;5078288;28;20059;-64
2022/03/25 08:32:21;;;;;;;79.38;39.55;;;;;;;;;;5096688;27;20151;-64
2022/03/25 08:34:47;;;;;;;77.10;39.05;;;;;;;;;;5086956;27;20496;-61
2022/03/25 08:37:14;;;;;;;76.72;39.20;;;;;;;;;;5071202;28;20063;-62
2022/03/25 08:39:40;;;;;;;75.70;37.63;;;;;;;;;;5087584;28;20073;-62
2022/03/25 08:42:08;;;;;;;81.65;38.15;;;;;;;;;;5085374;28;20049;-62
2022/03/25 08:44:35;;;;;;;80.40;41.42;;;;;;;;;;5074321;28;20136;-62
2022/03/25 08:47:01;;;;;;;80.03;40.58;;;;;;;;;;5083756;28;20059;-63
2022/03/25 08:49:29;;;;;;;69.15;34.40;;;;;;;;;;5101190;28;20079;-64
2022/03/25 08:51:56;;;;;;;73.63;36.85;;;;;;;;;;5090921;27;20558;-64
2022/03/25 08:54:23;;;;;;;71.68;34.55;;;;;;;;;;5104664;27;20044;-63
2022/03/25 08:56:49;;;;;;;64.80;33.00;;;;;;;;;;5096883;28;20058;-64
2022/03/25 08:59:16;;;;;;;69.85;35.78;;;;;;;;;;5095394;27;20540;-64
2022/03/25 09:01:44;;;;;;;71.70;35.85;;;;;;;;;;5093423;27;20079;-63
2022/03/25 09:04:10;;;;;;;69.68;37.53;;;;;;;;;;5106073;28;20403;-63
2022/03/25 09:06:37;;;;;;;63.65;33.47;;;;;;;;;;5095594;28;20055;-64
2022/03/25 09:09:03;;;;;;;65.65;32.97;;;;;;;;;;5098707;27;20055;-63
2022/03/25 09:11:31;;;;;;;68.22;35.95;;;;;;;;;;5103255;28;20066;-63
2022/03/25 09:13:57;;;;;;;68.25;36.45;;;;;;;;;;5092034;27;20086;-63
2022/03/25 09:16:24;;;;;;;70.85;37.15;;;;;;;;;;5077974;27;21603;-64
2022/03/25 09:18:50;;;;;;;71.93;35.85;;;;;;;;;;5100771;27;20065;-64
2022/03/25 09:21:17;;;;;;;73.45;35.75;;;;;;;;;;5100250;28;20527;-64
2022/03/25 09:23:43;;;;;;;76.25;36.55;;;;;;;;;;5108761;27;20060;-64
2022/03/25 09:26:09;;;;;;;70.00;33.83;;;;;;;;;;5092309;27;20194;-65
2022/03/25 09:28:36;;;;;;;68.63;35.72;;;;;;;;;;5102347;27;20059;-64
2022/03/25 09:31:02;;;;;;;67.15;34.92;;;;;;;;;;5097918;28;20056;-64
2022/03/25 09:33:28;;;;;;;66.68;36.22;;;;;;;;;;5101492;28;20059;-64
2022/03/25 09:35:57;;;;;;;68.78;35.30;;;;;;;;;;5092017;27;20048;-64
2022/03/25 09:38:23;;;;;;;74.57;35.85;;;;;;;;;;5104006;27;20168;-64
2022/03/25 09:40:50;;;;;;;68.60;35.28;;;;;;;;;;5096089;27;20788;-64
2022/03/25 09:43:19;;;;;;;56.78;30.23;;;;;;;;;;5097058;27;20057;-64
2022/03/25 09:45:46;;;;;;;64.20;33.95;;;;;;;;;;5097066;28;20139;-64
2022/03/25 09:48:13;;;;;;;60.90;30.35;;;;;;;;;;5091705;28;20063;-64
2022/03/25 09:50:40;;;;;;;56.28;30.45;;;;;;;;;;5082336;28;20143;-64
2022/03/25 09:53:28;;;;;;;59.05;31.40;;;;;;;;;;5108612;27;20052;-64
2022/03/25 09:55:54;;;;;;;60.15;30.25;;;;;;;;;;5092555;27;20063;-64
2022/03/25 09:58:22;;;;;;;58.67;30.35;;;;;;;;;;5103738;27;20055;-64
2022/03/25 10:00:50;;;;;;;54.47;27.63;;;;;;;;;;5096416;28;20048;-64
2022/03/25 10:03:33;;;;;;;56.47;29.85;;;;;;;;;;5096277;27;20060;-64
2022/03/25 10:06:01;;;;;;;64.43;32.70;;;;;;;;;;5079352;28;20510;-64
2022/03/25 10:08:38;;;;;;;59.05;27.65;;;;;;;;;;5080909;28;20478;-64
2022/03/25 10:11:23;;;;;;;50.53;27.58;;;;;;;;;;5097705;27;20427;-64
2022/03/25 10:14:09;;;;;;;52.20;25.77;;;;;;;;;;5104284;28;20135;-64
2022/03/25 10:16:35;;;;;;;60.17;30.17;;;;;;;;;;5080397;28;20044;-64
2022/03/25 10:19:03;;;;;;;52.72;26.88;;;;;;;;;;5098391;27;20063;-64
2022/03/25 10:21:48;;;;;;;53.72;26.70;;;;;;;;;;5101735;28;20048;-64
2022/03/25 10:24:18;;;;;;;51.30;27.10;;;;;;;;;;5076196;27;20474;-64
2022/03/25 10:26:45;;;;;;;49.63;25.85;;;;;;;;;;5100580;27;20143;-64
2022/03/25 10:29:22;;;;;;;53.37;27.10;;;;;;;;;;5099511;28;20143;-64
2022/03/25 10:32:07;;;;;;;50.72;27.92;;;;;;;;;;5091030;27;20060;-64
2022/03/25 10:34:38;;;;;;;56.33;26.02;;;;;;;;;;5078759;28;20086;-64
2022/03/25 10:37:06;;;;;;;52.63;25.67;;;;;;;;;;5092589;27;20880;-64
2022/03/25 10:39:33;;;;;;;53.13;25.98;;;;;;;;;;5089910;27;20168;-64
2022/03/25 10:42:00;;;;;;;51.90;26.50;;;;;;;;;;5102008;28;20131;-64
2022/03/25 10:44:34;;;;;;;52.42;24.92;;;;;;;;;;5093066;28;20574;-64
2022/03/25 10:47:18;;;;;;;53.33;26.17;;;;;;;;;;5098371;27;20352;-64
2022/03/25 10:49:46;;;;;;;55.42;26.33;;;;;;;;;;5103291;28;20056;-64
2022/03/25 10:52:32;;;;;;;50.78;26.73;;;;;;;;;;5090531;27;20498;-64
2022/03/25 10:55:19;;;;;;;46.17;22.33;;;;;;;;;;5097611;27;20644;-64
2022/03/25 10:57:54;;;;;;;56.85;28.02;;;;;;;;;;5072983;28;20056;-65
2022/03/25 11:00:21;;;;;;;55.72;27.45;;;;;;;;;;5075940;28;20481;-64
2022/03/25 11:02:47;;;;;;;54.47;26.50;;;;;;;;;;5098742;27;20056;-64
2022/03/25 11:05:14;;;;;;;53.95;25.35;;;;;;;;;;5099059;28;20052;-64
2022/03/25 11:07:42;;;;;;;54.83;28.92;;;;;;;;;;5092208;27;20672;-64
2022/03/25 11:10:11;;;;;;;57.67;28.38;;;;;;;;;;5104058;28;20048;-64
2022/03/25 11:12:39;;;;;;;59.28;28.17;;;;;;;;;;5093477;28;20154;-64
2022/03/25 11:15:05;;;;;;;56.08;29.77;;;;;;;;;;5093607;27;20079;-64
2022/03/25 11:17:33;;;;;;;54.30;28.10;;;;;;;;;;5093236;27;20147;-64
2022/03/25 11:20:01;;;;;;;54.65;28.80;;;;;;;;;;5103724;28;20759;-64
2022/03/25 11:22:28;;;;;;;56.40;27.83;;;;;;;;;;5091908;28;20092;-64
2022/03/25 11:24:57;;;;;;;56.67;29.17;;;;;;;;;;5098249;27;20502;-64
2022/03/25 11:27:34;;;;;;;59.10;29.02;;;;;;;;;;5099518;28;20895;-64
2022/03/25 11:30:03;;;;;;;57.13;28.55;;;;;;;;;;5106135;28;20218;-64
2022/03/25 11:32:30;;;;;;;52.95;27.38;;;;;;;;;;5077631;28;20052;-64
2022/03/25 11:34:56;;;;;;;50.13;24.33;;;;;;;;;;5097991;27;20147;-64
2022/03/25 11:37:25;;;;;;;53.40;27.45;;;;;;;;;;5092345;28;20070;-64
2022/03/25 11:40:22;;;;;;;62.58;29.20;;;;;;;;;;5089581;27;20060;-64
2022/03/25 11:42:49;;;;;;;51.55;26.55;;;;;;;;;;5099247;27;20061;-64
2022/03/25 11:45:22;;;;;;;58.72;29.63;;;;;;;;;;5099133;28;20143;-64
2022/03/25 11:48:11;;;;;;;58.20;28.88;;;;;;;;;;5083337;27;20581;-64
2022/03/25 11:50:41;;;;;;;54.05;28.45;;;;;;;;;;5078893;28;20150;-65
2022/03/25 11:53:10;;;;;;;55.10;27.35;;;;;;;;;;5095859;27;20143;-64
2022/03/25 11:55:52;;;;;;;53.58;27.67;;;;;;;;;;5101424;28;20098;-64
2022/03/25 11:58:18;;;;;;;50.05;26.88;;;;;;;;;;5073960;28;20135;-64
2022/03/25 12:01:06;;;;;;;47.45;22.40;;;;;;;;;;5095613;27;20522;-64
2022/03/25 12:04:02;;;;;;;47.17;24.55;;;;;;;;;;5101076;27;20052;-64
2022/03/25 12:06:29;;;;;;;46.70;24.52;;;;;;;;;;5075006;28;20059;-64
2022/03/25 12:08:58;;;;;;;51.15;25.42;;;;;;;;;;5100998;27;20056;-64
2022/03/25 12:11:43;;;;;;;49.55;25.90;;;;;;;;;;5102905;28;20634;-65
2022/03/25 12:14:10;;;;;;;49.50;25.60;;;;;;;;;;5092241;28;20059;-64
2022/03/25 12:16:49;;;;;;;56.53;27.02;;;;;;;;;;5103038;27;20056;-64
2022/03/25 12:19:41;;;;;;;49.17;23.80;;;;;;;;;;5102724;28;20055;-65
2022/03/25 12:22:19;;;;;;;47.20;24.88;;;;;;;;;;5086651;27;20135;-64
2022/03/25 12:24:45;;;;;;;;;;;;;;;;;;5102710;27;20147;-64
2022/03/25 12:27:12;;;;;;;48.88;23.92;;;;;;;;;;5100488;28;43004;-64
2022/03/25 12:29:42;;;;;;;44.42;22.40;;;;;;;;;;5094327;27;20143;-64
2022/03/25 12:32:13;;;;;;;42.28;20.67;;;;;;;;;;5106526;28;20131;-65
2022/03/25 12:34:39;;;;;;;48.03;25.10;;;;;;;;;;5096017;28;20143;-64
2022/03/25 12:37:09;;;;;;;47.35;24.02;;;;;;;;;;5093982;27;20528;-64
2022/03/25 12:39:35;;;;;;;39.22;20.13;;;;;;;;;;5081657;27;20053;-64
2022/03/25 12:42:10;;;;;;;42.30;20.27;;;;;;;;;;5104891;28;20048;-64
2022/03/25 12:44:36;;;;;;;44.78;21.08;;;;;;;;;;5096248;28;20131;-64
2022/03/25 12:47:03;;;;;;;39.55;21.58;;;;;;;;;;5099235;27;20534;-64
2022/03/25 12:49:30;;;;;;;42.38;21.05;;;;;;;;;;5100535;28;20080;-64
2022/03/25 12:51:57;;;;;;;46.15;23.30;;;;;;;;;;5091059;28;20503;-64
2022/03/25 12:54:23;;;;;;;45.88;23.95;;;;;;;;;;5104677;27;20164;-64
2022/03/25 12:56:57;;;;;;;43.00;23.42;;;;;;;;;;5091049;28;20265;-64
2022/03/25 12:59:53;;;;;;;42.47;21.08;;;;;;;;;;5093493;27;20458;-64
2022/03/25 13:02:27;;;;;;;42.70;21.13;;;;;;;;;;5075353;28;20128;-64
2022/03/25 13:05:03;;;;;;;38.75;22.13;;;;;;;;;;5100456;27;20095;-64
2022/03/25 13:07:30;;;;;;;39.72;22.23;;;;;;;;;;5102985;28;20536;-64
2022/03/25 13:09:56;;;;;;;43.97;23.27;;;;;;;;;;5093180;27;20091;-64
2022/03/25 13:12:29;;;;;;;42.30;20.25;;;;;;;;;;5102900;27;20562;-64
2022/03/25 13:14:56;;;;;;;45.55;21.73;;;;;;;;;;5098466;28;20052;-64
2022/03/25 13:17:27;;;;;;;45.78;21.63;;;;;;;;;;5095573;27;20529;-64
2022/03/25 13:19:56;;;;;;;44.53;22.23;;;;;;;;;;5105476;28;20051;-64
2022/03/25 13:22:23;;;;;;;45.20;21.48;;;;;;;;;;5093278;28;20149;-64
2022/03/25 13:24:53;;;;;;;39.53;20.45;;;;;;;;;;5100394;27;20445;-64
2022/03/25 13:27:20;;;;;;;40.97;19.98;;;;;;;;;;5101563;28;20155;-64
2022/03/25 13:29:46;;;;;;;39.60;19.38;;;;;;;;;;5085173;27;20057;-64
2022/03/25 13:32:27;;;;;;;37.67;17.33;;;;;;;;;;5105222;28;20898;-65
2022/03/25 13:35:00;;;;;;;36.40;16.88;;;;;;;;;;5096981;28;20048;-64
2022/03/25 13:37:26;;;;;;;31.38;16.23;;;;;;;;;;5095708;28;20139;-64
2022/03/25 13:39:52;;;;;;;33.72;18.10;;;;;;;;;;5092551;27;20092;-64
2022/03/25 13:42:19;;;;;;;32.47;17.08;;;;;;;;;;5104506;27;20053;-64
2022/03/25 13:44:45;;;;;;;32.33;16.63;;;;;;;;;;5095772;28;20146;-64
2022/03/25 13:47:11;;;;;;;32.15;16.05;;;;;;;;;;5088387;27;20077;-64
2022/03/25 13:49:38;;;;;;;28.80;14.13;;;;;;;;;;5098704;28;20165;-65
2022/03/25 13:52:05;;;;;;;31.90;14.32;;;;;;;;;;5091568;27;20052;-65
2022/03/25 13:54:31;;;;;;;30.77;14.77;;;;;;;;;;5102908;27;20122;-64
2022/03/25 13:57:04;;;;;;;33.17;16.45;;;;;;;;;;5097982;28;20106;-65
2022/03/25 13:59:43;;;;;;;35.85;17.08;;;;;;;;;;5093841;27;20510;-63
2022/03/25 14:02:28;;;;;;;36.15;15.27;;;;;;;;;;5104994;28;20529;-65
2022/03/25 14:04:55;;;;;;;38.28;21.08;;;;;;;;;;5090623;28;20136;-66
2022/03/25 14:07:22;;;;;;;37.45;19.85;;;;;;;;;;5095805;27;20092;-64
2022/03/25 14:09:52;;;;;;;47.33;23.63;;;;;;;;;;5104879;28;20147;-63
2022/03/25 14:12:22;;;;;;;47.55;21.98;;;;;;;;;;5076110;28;21037;-64
2022/03/25 14:14:51;;;;;;;42.65;21.40;;;;;;;;;;5099950;27;20075;-64
2022/03/25 14:17:17;;;;;;;38.67;20.92;;;;;;;;;;5100671;28;20648;-64
2022/03/25 14:19:43;;;;;;;43.45;21.70;;;;;;;;;;5091084;27;20055;-63
2022/03/25 14:22:10;;;;;;;37.70;21.20;;;;;;;;;;5091496;28;21360;-64
2022/03/25 14:24:40;;;;;;;36.05;20.02;;;;;;;;;;5102113;27;20524;-64
2022/03/25 14:27:08;;;;;;;36.22;20.92;;;;;;;;;;5098486;27;20044;-64
2022/03/25 14:29:34;;;;;;;37.15;20.83;;;;;;;;;;5093755;27;20082;-64